Nearby METAR Reports

 

EGTE - Exeter Airport, United Kingdom
Distance from station: S 19km
Updated: 21/01/2018 15:50
Light rain, Mostly cloudy
Light rain, Mostly cloudy
 Wind from W
Wind: W 26 km/h
Temperature: 13°C
Dew Point: 11°C
Humidity: 88%
Barometer: 1008 hPa
Summary: Light rain
Clouds: Mostly cloudy
Visibility: 10 km
Cloud details: Few Clouds 457 m
Mostly cloudy 610 m
2018/01/21 15:50 EGTE 211550Z 26014KT 230V300 9999 -RA FEW015 BKN020 13/11 Q1008
EGDY - Yeovilton (navy), United Kingdom
Distance from station: ENE 55km
Updated: 21/01/2018 15:50
Overcast
Overcast
 Wind from WSW
Wind: WSW 17 km/h
Temperature: 12°C
Dew Point: 11°C
Humidity: 94%
Barometer: 1008 hPa
Clouds: Overcast
Visibility: 10 km
Cloud details: Overcast 396 m
2018/01/21 15:50 EGDY 211550Z AUTO 25009KT 9999 OVC013/// 12/11 Q1008 RERA
 
EGFF - Cardiff-Wales Ar, United Kingdom
Distance from station: N 56km
Updated: 21/01/2018 16:20
Rain, Mist, Mostly cloudy
Rain, Mist, Mostly cloudy
 Wind from W
Wind: W 39 km/h, Gust: 59 km/h
Temperature: 10°C
Wind Chill: 6°C
Dew Point: 10°C
Humidity: 100%
Barometer: 1006 hPa
Summary: Rain, Mist
Clouds: Mostly cloudy
Visibility: 2 km
Cloud details: Few Clouds 30 m
Mostly cloudy 61 m
2018/01/21 16:20 EGFF 211620Z 27021G32KT 2400 RA BR FEW001 BKN002 10/10 Q1006 RESHRA
EGDX - St Athan Raf, United Kingdom
Distance from station: N 58km
Updated: 21/01/2018 15:50
Heavy rain, Overcast
Heavy rain, Overcast
 Wind from W
Wind: W 35 km/h
Temperature: 10°C
Wind Chill: 6°C
Dew Point: 10°C
Humidity: 100%
Barometer: 1006 hPa
Summary: Heavy rain
Clouds: Overcast
Visibility: 1 km
Cloud details: Overcast 61 m
2018/01/21 15:50 EGDX 211550Z 27019KT 1300 +RA OVC002 10/10 Q1006 AMB
 
EGGD - Bristol/Lulsgate, United Kingdom
Distance from station: NE 71km
Updated: 21/01/2018 16:20
Rain, Fog
Rain, Fog
 Wind from WSW
Wind: WSW 26 km/h
Temperature: 10°C
Wind Chill: 7°C
Dew Point: 10°C
Humidity: 100%
Barometer: 1007 hPa
Summary: Rain, Fog
Visibility: 0 km
2018/01/21 16:20 EGGD 211620Z 24014KT 0400 R27/1300 RA FG VV/// 10/10 Q1007